Terminal Aerodrome Forecast
Issued by NWS Salt Lake City, UT

Home | Current Version | Previous Version | Text Only | Print | Product List | Glossary On
Versions: 1 2 3 4 5 6 7 8 9 10 11 12 13 14 15 16 17 18 19 20 21 22 23 24 25 26 27 28 29
000
FTUS45 KSLC 192340
TAFSLC
TAF
KSLC 192340Z 2000/2106 32006KT 1SM -SN BR BKN005 OVC015
     FM200200 32004KT 3SM BR VCSH SCT007 BKN025
     FM200700 17006KT 5SM BR SCT007 BKN035
     FM201900 15009KT P6SM VCSH SCT030 BKN060=

USA.gov is the U.S. government's official web portal to all federal, state and local government web resources and services.